Portada
METAR-TAF:

METAR-TAF

Aeroports :

Aeroport Internacional de Bahrain

Bahrain, Bahrain

latitud: 26-16N, longitud: 050-39E, altitud: 2 m

Observació

L'informe es va fer fa 30 minuts, a les 20:30 UTC
Vent 5 kt del Oest
Temperatura 38°C
Humitat 23%
Pressió 995 hPa
Visibilitat 10 km o més
sense núvols per sota de 1500 mi sense presència de cumulonimbus.

METAR: OBBI 182030Z 26005KT CAVOK 38/13 Q0995 NOSIG

Hora: 00:00 (21:00 UTC)

Pronòstic

L'informe es va fer fa 4 hores i 0 minuts, a les 17:00 UTC
Pronòstic vàlid del 18 a les 18 UTC al 20 a les 00 UTC
Vent 7 kt del Oest
Visibilitat 10 km o més
sense núvols per sota de 1500 mi sense presència de cumulonimbus.
Evolucionant progressivament
l' 19 a les 00 UTC al 19 a les 02 UTC
Vent 10 kt del Nord/Nord-Oest

TAF: OBBI 181700Z 1818/2000 27007KT CAVOK BECMG 1900/1902 33010KT

Observacions i pronòstics meteorològics de més de 4000 aeroports (METAR i TAF).

Les estacions disponibles són els punts grocs i vermells al mapa.

Posi el ratolí al punt desitjat per veure el nom de l'estació.

Feu clic per veure les observacions i els pronòstics meteorològics.

Per canviar el mapa: feu clic els botons verds amb una creu de color negre per apropar; al botó verd amb un guió per allunyar la imatge; o en les fletxes verdes per a mapes adjacents.


METAR-TAF: